createdAt,value
2018-12-20T00:00:12.982Z,70.64
2018-12-20T00:02:46.813Z,70.40
2018-12-20T00:08:02.134Z,69.89
2018-12-20T00:10:35.787Z,69.68
2018-12-20T00:13:10.603Z,70.14
2018-12-20T00:15:44.340Z,70.16
2018-12-20T00:18:18.071Z,70.15
2018-12-20T00:20:51.795Z,70.44
2018-12-20T00:23:26.322Z,70.14
2018-12-20T00:26:00.187Z,69.67
2018-12-20T00:28:33.975Z,69.82
2018-12-20T00:31:13.534Z,70.04
2018-12-20T00:33:42.520Z,69.79
2018-12-20T00:36:16.286Z,69.37
2018-12-20T00:38:50.241Z,69.54
2018-12-20T00:41:23.833Z,69.69
2018-12-20T00:43:57.996Z,69.60
2018-12-20T00:46:32.545Z,69.79
2018-12-20T00:49:06.312Z,69.66
2018-12-20T00:51:40.965Z,69.36
2018-12-20T00:54:14.640Z,69.59
2018-12-20T00:56:48.446Z,69.89
2018-12-20T00:59:22.974Z,70.22
2018-12-20T01:01:56.542Z,70.17
2018-12-20T01:04:30.731Z,69.72
2018-12-20T01:07:04.520Z,69.66
2018-12-20T01:09:38.333Z,69.37
2018-12-20T01:12:12.187Z,69.44
2018-12-20T01:14:46.647Z,69.99
2018-12-20T01:17:20.357Z,70.00
2018-12-20T01:19:54.512Z,69.97
2018-12-20T01:22:28.560Z,69.96
2018-12-20T01:25:02.478Z,69.98
2018-12-20T01:27:36.283Z,70.34
2018-12-20T01:30:10.444Z,70.57
2018-12-20T01:32:44.277Z,70.69
2018-12-20T01:35:18.495Z,70.44
2018-12-20T01:37:53.000Z,70.60
2018-12-20T01:40:26.670Z,70.51
2018-12-20T01:43:00.599Z,70.31
2018-12-20T01:45:34.383Z,70.46
2018-12-20T01:48:07.967Z,70.63
2018-12-20T01:50:42.603Z,70.48
2018-12-20T01:53:17.067Z,70.34
2018-12-20T01:55:50.807Z,70.15
2018-12-20T01:58:24.619Z,70.76
2018-12-20T02:00:58.619Z,71.23
2018-12-20T02:03:33.178Z,71.51
2018-12-20T02:06:07.018Z,71.68
2018-12-20T02:08:40.741Z,71.62
2018-12-20T02:11:14.474Z,71.45
2018-12-20T02:13:48.425Z,71.88
2018-12-20T02:16:22.506Z,72.06
2018-12-20T02:18:56.087Z,72.55
2018-12-20T02:21:30.149Z,72.69
2018-12-20T02:24:04.957Z,72.07
2018-12-20T02:29:18.612Z,71.53
2018-12-20T02:31:52.510Z,71.96
2018-12-20T02:37:07.609Z,72.31
2018-12-20T02:39:41.257Z,72.52
2018-12-20T02:42:15.099Z,72.55
2018-12-20T02:47:30.222Z,72.36
2018-12-20T02:50:03.932Z,72.20
2018-12-20T02:52:37.728Z,71.91
2018-12-20T02:57:53.351Z,71.76
2018-12-20T03:00:26.982Z,71.41
2018-12-20T03:03:00.796Z,71.15
2018-12-20T03:05:34.606Z,71.67
2018-12-20T03:08:08.262Z,71.77
2018-12-20T03:10:42.132Z,72.04
2018-12-20T03:13:15.890Z,71.97
2018-12-20T03:15:49.979Z,71.94
2018-12-20T03:18:24.040Z,71.76
2018-12-20T03:20:58.643Z,71.90
2018-12-20T03:23:32.303Z,71.68
2018-12-20T03:26:05.945Z,71.39
2018-12-20T03:28:39.836Z,71.52
2018-12-20T03:31:14.345Z,71.36
2018-12-20T03:33:48.356Z,71.33
2018-12-20T03:36:21.967Z,71.31
2018-12-20T03:38:55.725Z,71.30
2018-12-20T03:41:29.600Z,71.45
2018-12-20T03:44:03.221Z,72.12
2018-12-20T03:46:37.052Z,72.08
2018-12-20T03:49:11.513Z,72.09
2018-12-20T03:51:45.511Z,72.06
2018-12-20T03:54:19.224Z,71.98
2018-12-20T03:56:52.928Z,72.22
2018-12-20T03:59:27.412Z,72.26
2018-12-20T04:02:02.231Z,72.46
2018-12-20T04:04:36.201Z,72.49
2018-12-20T04:07:09.799Z,72.33
2018-12-20T04:09:43.610Z,72.56
2018-12-20T04:12:17.281Z,72.76
2018-12-20T04:14:51.357Z,72.63
2018-12-20T04:17:25.909Z,72.40
2018-12-20T04:22:39.550Z,72.65
2018-12-20T04:25:14.057Z,73.24
2018-12-20T04:30:31.837Z,72.54
2018-12-20T04:33:06.511Z,73.18
2018-12-20T04:38:19.882Z,73.38
2018-12-20T04:40:53.691Z,73.42
2018-12-20T04:43:28.136Z,74.06
2018-12-20T04:46:02.888Z,73.83
2018-12-20T04:48:36.581Z,73.61
2018-12-20T04:51:10.375Z,73.63
2018-12-20T04:53:44.754Z,73.49
2018-12-20T04:56:18.651Z,73.55
2018-12-20T04:58:52.315Z,73.16
2018-12-20T05:01:26.105Z,72.98
2018-12-20T05:04:00.972Z,73.43
2018-12-20T05:06:34.734Z,73.87
2018-12-20T05:09:09.323Z,73.85
2018-12-20T05:11:43.826Z,73.42
2018-12-20T05:14:18.618Z,73.21
2018-12-20T05:16:52.364Z,72.68
2018-12-20T05:19:26.580Z,73.01
2018-12-20T05:22:00.303Z,72.96
2018-12-20T05:24:34.147Z,73.21
2018-12-20T05:27:08.699Z,72.94
2018-12-20T05:29:42.382Z,72.89
2018-12-20T05:32:16.944Z,72.81
2018-12-20T05:34:50.784Z,73.37
2018-12-20T05:37:24.616Z,73.53
2018-12-20T05:39:58.414Z,73.63
2018-12-20T05:42:32.001Z,74.14
2018-12-20T05:45:06.750Z,74.50
2018-12-20T05:47:40.615Z,74.95
2018-12-20T05:50:14.330Z,74.22
2018-12-20T05:52:48.397Z,73.85
2018-12-20T05:55:22.392Z,73.89
2018-12-20T05:57:56.797Z,73.51
2018-12-20T06:00:31.371Z,73.38
2018-12-20T06:03:05.235Z,73.57
2018-12-20T06:05:39.173Z,73.35
2018-12-20T06:08:12.743Z,73.39
2018-12-20T06:10:47.256Z,73.59
2018-12-20T06:13:22.484Z,73.37
2018-12-20T06:15:56.461Z,73.61
2018-12-20T06:18:30.034Z,73.94
2018-12-20T06:21:04.625Z,73.85
2018-12-20T06:23:38.655Z,73.85
2018-12-20T06:26:13.161Z,73.55
2018-12-20T06:28:46.933Z,73.15
2018-12-20T06:31:20.727Z,73.47
2018-12-20T06:33:54.468Z,74.09
2018-12-20T06:36:28.221Z,74.00
2018-12-20T06:39:02.326Z,73.58
2018-12-20T06:41:36.780Z,73.73
2018-12-20T06:44:10.525Z,73.91
2018-12-20T06:46:50.663Z,73.71
2018-12-20T06:49:24.480Z,73.66
2018-12-20T06:51:58.200Z,73.48
2018-12-20T06:57:14.449Z,72.82
2018-12-20T06:59:48.169Z,72.62
2018-12-20T07:02:21.965Z,72.61
2018-12-20T07:07:37.257Z,72.84
2018-12-20T07:10:11.505Z,73.24
2018-12-20T07:12:45.317Z,73.11
2018-12-20T07:17:58.582Z,73.43
2018-12-20T07:20:32.718Z,73.24
2018-12-20T07:23:06.480Z,73.15
2018-12-20T07:25:40.336Z,73.26
2018-12-20T07:28:14.173Z,73.08
2018-12-20T07:30:47.957Z,73.22
2018-12-20T07:33:22.237Z,73.09
2018-12-20T07:35:56.048Z,72.74
2018-12-20T07:38:29.841Z,72.79
2018-12-20T07:41:03.645Z,72.47
2018-12-20T07:43:37.397Z,72.55
2018-12-20T07:46:11.195Z,72.66
2018-12-20T07:51:26.481Z,72.64
2018-12-20T07:54:00.608Z,72.59
2018-12-20T07:56:34.325Z,72.49
2018-12-20T07:59:08.450Z,72.40
2018-12-20T08:01:42.308Z,72.42
2018-12-20T08:04:16.834Z,72.20
2018-12-20T08:06:51.314Z,72.25
2018-12-20T08:09:25.399Z,72.16
2018-12-20T08:11:59.489Z,72.09
2018-12-20T08:14:34.015Z,71.84
2018-12-20T08:17:08.487Z,71.82
2018-12-20T08:19:42.329Z,71.66
2018-12-20T08:22:16.084Z,71.66
2018-12-20T08:24:49.907Z,71.29
2018-12-20T08:27:33.910Z,71.36
2018-12-20T08:30:12.073Z,71.87
2018-12-20T08:32:45.869Z,71.76
2018-12-20T08:35:19.650Z,72.24
2018-12-20T08:37:53.419Z,72.88
2018-12-20T08:40:27.988Z,73.28
2018-12-20T08:43:02.026Z,72.96
2018-12-20T08:45:36.128Z,73.47
2018-12-20T08:50:49.733Z,73.37
2018-12-20T08:53:23.501Z,73.51
2018-12-20T08:55:57.312Z,73.61
2018-12-20T08:58:31.077Z,73.38
2018-12-20T09:01:04.904Z,73.49
2018-12-20T09:03:38.657Z,73.55
2018-12-20T09:06:13.180Z,73.18
2018-12-20T09:08:47.729Z,73.75
2018-12-20T09:11:21.525Z,73.68
2018-12-20T09:13:55.320Z,73.48
2018-12-20T09:16:29.802Z,73.28
2018-12-20T09:19:03.621Z,73.11
2018-12-20T09:21:37.363Z,72.87
2018-12-20T09:24:11.195Z,73.06
2018-12-20T09:26:45.004Z,72.80
2018-12-20T09:29:18.769Z,72.79
2018-12-20T09:31:53.296Z,72.85
2018-12-20T09:34:27.866Z,72.92
2018-12-20T09:37:02.325Z,73.16
2018-12-20T09:39:36.165Z,73.10
2018-12-20T09:42:09.900Z,73.19
2018-12-20T09:44:43.806Z,73.25
2018-12-20T09:50:17.708Z,73.65
2018-12-20T09:52:51.440Z,73.57
2018-12-20T09:55:25.225Z,73.76
2018-12-20T09:57:59.061Z,73.91
2018-12-20T10:00:32.898Z,74.01
2018-12-20T10:03:07.425Z,73.63
2018-12-20T10:05:41.892Z,73.35
2018-12-20T10:08:15.699Z,73.79
2018-12-20T10:11:00.023Z,73.32
2018-12-20T10:13:37.937Z,73.62
2018-12-20T10:16:11.665Z,73.26
2018-12-20T10:18:45.461Z,73.16
2018-12-20T10:21:19.196Z,73.33
2018-12-20T10:23:53.018Z,73.51
2018-12-20T10:26:26.778Z,73.40
2018-12-20T10:29:00.610Z,73.36
2018-12-20T10:31:34.706Z,73.21
2018-12-20T10:34:08.516Z,73.25
2018-12-20T10:36:42.289Z,73.34
2018-12-20T10:39:16.503Z,73.44
2018-12-20T10:41:51.724Z,73.58
2018-12-20T10:44:25.562Z,73.72
2018-12-20T10:50:00.324Z,73.47
2018-12-20T10:52:34.033Z,73.32
2018-12-20T10:55:07.813Z,73.36
2018-12-20T10:57:41.592Z,73.29
2018-12-20T11:00:15.461Z,73.29
2018-12-20T11:03:07.857Z,73.13
2018-12-20T11:06:01.391Z,73.08
2018-12-20T11:11:23.061Z,73.23
2018-12-20T11:13:57.516Z,72.83
2018-12-20T11:16:31.282Z,73.23
2018-12-20T11:19:05.067Z,73.17
2018-12-20T11:21:38.917Z,73.50
2018-12-20T11:24:12.714Z,73.50
2018-12-20T11:26:47.512Z,73.43
2018-12-20T11:29:21.333Z,73.48
2018-12-20T11:34:35.005Z,72.85
2018-12-20T11:37:09.588Z,73.09
2018-12-20T11:39:43.656Z,73.29
2018-12-20T11:42:17.470Z,73.05
2018-12-20T11:44:51.628Z,73.20
2018-12-20T11:50:11.052Z,73.08
2018-12-20T11:52:45.821Z,72.89
2018-12-20T11:55:19.616Z,73.00
2018-12-20T11:57:53.403Z,73.06
2018-12-20T12:00:27.274Z,73.31
2018-12-20T12:03:01.032Z,73.22
2018-12-20T12:05:34.773Z,73.11
2018-12-20T12:08:08.579Z,73.25
2018-12-20T12:10:42.364Z,72.82
2018-12-20T12:13:16.141Z,72.56
2018-12-20T12:15:50.204Z,72.51
2018-12-20T12:18:24.016Z,72.43
2018-12-20T12:23:37.586Z,72.44
2018-12-20T12:26:11.294Z,72.38
2018-12-20T12:28:45.804Z,72.45
2018-12-20T12:31:19.660Z,72.36
2018-12-20T12:33:53.484Z,72.07
2018-12-20T12:39:11.241Z,71.97
2018-12-20T12:47:04.429Z,71.61
2018-12-20T12:49:38.451Z,71.33
2018-12-20T12:52:12.196Z,71.44
2018-12-20T12:54:46.755Z,71.34
2018-12-20T13:00:00.080Z,71.89
2018-12-20T13:02:34.133Z,71.83
2018-12-20T13:05:08.285Z,71.87
2018-12-20T13:07:42.080Z,71.95
2018-12-20T13:10:15.928Z,72.15
2018-12-20T13:12:49.721Z,72.09
2018-12-20T13:15:24.173Z,72.04
2018-12-20T13:17:57.971Z,71.83
2018-12-20T13:20:31.752Z,71.97
2018-12-20T13:23:06.252Z,71.79
2018-12-20T13:25:40.037Z,71.44
2018-12-20T13:28:13.855Z,72.02
2018-12-20T13:30:47.594Z,71.64
2018-12-20T13:36:01.175Z,71.75
2018-12-20T13:38:34.872Z,71.54
2018-12-20T13:41:08.954Z,71.02
2018-12-20T13:43:43.481Z,71.13
2018-12-20T13:46:18.036Z,71.33
2018-12-20T13:51:31.873Z,71.14
2018-12-20T13:56:46.612Z,71.63
2018-12-20T13:59:20.317Z,71.43
2018-12-20T14:01:54.118Z,71.53
2018-12-20T14:04:28.995Z,71.42
2018-12-20T14:07:02.808Z,71.03
2018-12-20T14:09:37.341Z,71.09
2018-12-20T14:12:11.396Z,71.24
2018-12-20T14:14:45.202Z,71.43
2018-12-20T14:17:18.983Z,71.29
2018-12-20T14:19:52.765Z,71.59
2018-12-20T14:22:26.489Z,71.14
2018-12-20T14:25:00.282Z,71.44
2018-12-20T14:27:34.033Z,71.05
2018-12-20T14:30:11.045Z,71.21
2018-12-20T14:32:45.544Z,71.22
2018-12-20T14:35:19.305Z,71.12
2018-12-20T14:37:53.115Z,71.03
2018-12-20T14:43:06.730Z,70.97
2018-12-20T14:48:39.266Z,70.54
2018-12-20T14:51:07.072Z,71.17
2018-12-20T14:53:40.829Z,71.06
2018-12-20T14:56:14.630Z,71.12
2018-12-20T15:01:28.288Z,71.08
2018-12-20T15:04:01.998Z,71.01
2018-12-20T15:06:35.765Z,70.83
2018-12-20T15:09:10.776Z,71.23
2018-12-20T15:11:44.605Z,71.73
2018-12-20T15:14:19.126Z,72.05
2018-12-20T15:16:53.104Z,71.76
2018-12-20T15:19:26.896Z,72.02
2018-12-20T15:22:00.695Z,72.05
2018-12-20T15:24:34.505Z,72.71
2018-12-20T15:27:08.289Z,73.19
2018-12-20T15:29:42.099Z,73.32
2018-12-20T15:32:15.853Z,72.91
2018-12-20T15:40:11.044Z,72.25
2018-12-20T15:42:44.870Z,71.93
2018-12-20T15:50:42.289Z,72.80
2018-12-20T15:53:16.033Z,72.82
2018-12-20T16:03:51.533Z,72.82
2018-12-20T16:06:25.978Z,72.93
2018-12-20T16:09:00.338Z,73.37
2018-12-20T16:11:34.387Z,73.32
2018-12-20T16:14:09.244Z,73.32
2018-12-20T16:16:43.008Z,73.31
2018-12-20T16:19:16.985Z,73.24
2018-12-20T16:21:50.804Z,73.52
2018-12-20T16:24:24.861Z,73.13
2018-12-20T16:26:59.718Z,73.14
2018-12-20T16:32:13.700Z,73.24
2018-12-20T16:34:47.440Z,73.34
2018-12-20T16:37:21.233Z,73.33
2018-12-20T16:39:56.807Z,73.75
2018-12-20T16:42:31.363Z,73.99
2018-12-20T16:45:05.141Z,73.98
2018-12-20T16:47:38.912Z,74.49
2018-12-20T16:50:12.781Z,74.61
2018-12-20T16:52:46.569Z,74.46
2018-12-20T16:55:20.661Z,74.50
2018-12-20T16:57:55.134Z,74.61
2018-12-20T17:00:28.922Z,74.91
2018-12-20T17:03:02.929Z,74.74
2018-12-20T17:05:36.995Z,74.70
2018-12-20T17:10:50.631Z,74.85
2018-12-20T17:13:24.361Z,74.83
2018-12-20T17:15:58.898Z,74.85
2018-12-20T17:18:32.724Z,75.50
2018-12-20T17:21:06.538Z,75.34
2018-12-20T17:23:40.303Z,75.23
2018-12-20T17:26:14.045Z,74.88
2018-12-20T17:31:27.397Z,75.07
2018-12-20T17:34:01.879Z,75.33
2018-12-20T17:36:35.164Z,75.09
2018-12-20T17:39:10.806Z,75.36
2018-12-20T17:41:44.644Z,75.13
2018-12-20T17:44:19.200Z,75.13
2018-12-20T17:46:52.930Z,75.25
2018-12-20T17:49:30.573Z,75.43
2018-12-20T17:52:01.343Z,75.39
2018-12-20T17:57:14.638Z,75.77
2018-12-20T17:59:48.345Z,75.76
2018-12-20T18:02:23.169Z,75.75
2018-12-20T18:07:37.892Z,75.46
2018-12-20T18:10:13.657Z,75.16
2018-12-20T18:12:47.834Z,75.35
2018-12-20T18:15:22.370Z,75.57
2018-12-20T18:17:56.208Z,75.93
2018-12-20T18:20:30.013Z,75.62
2018-12-20T18:23:04.033Z,75.48
2018-12-20T18:25:38.189Z,75.60
2018-12-20T18:28:12.708Z,75.57
2018-12-20T18:30:46.518Z,75.63
2018-12-20T18:33:20.994Z,75.67
2018-12-20T18:35:54.780Z,75.81
2018-12-20T18:38:28.538Z,75.78
2018-12-20T18:41:02.964Z,75.86
2018-12-20T18:43:37.034Z,75.62
2018-12-20T18:46:12.071Z,75.50
2018-12-20T18:48:46.028Z,75.47
2018-12-20T18:51:20.552Z,75.70
2018-12-20T18:53:54.669Z,76.10
2018-12-20T18:56:28.539Z,75.89
2018-12-20T18:59:02.280Z,75.95
2018-12-20T19:01:36.114Z,76.22
2018-12-20T19:04:09.933Z,75.82
2018-12-20T19:06:43.633Z,76.42
2018-12-20T19:09:17.906Z,76.15
2018-12-20T19:11:52.417Z,75.75
2018-12-20T19:14:26.199Z,75.93
2018-12-20T19:16:59.986Z,75.53
2018-12-20T19:19:33.720Z,75.40
2018-12-20T19:22:07.524Z,75.79
2018-12-20T19:24:41.325Z,76.05
2018-12-20T19:27:15.078Z,76.00
2018-12-20T19:29:48.884Z,76.08
2018-12-20T19:32:22.923Z,76.16
2018-12-20T19:34:56.687Z,76.16
2018-12-20T19:37:31.220Z,76.67
2018-12-20T19:40:08.349Z,76.65
2018-12-20T19:42:42.136Z,76.58
2018-12-20T19:45:15.914Z,76.16
2018-12-20T19:47:50.439Z,76.42
2018-12-20T19:50:24.985Z,76.43
2018-12-20T19:52:59.064Z,76.49
2018-12-20T19:58:13.368Z,76.43
2018-12-20T20:00:47.065Z,76.98
2018-12-20T20:03:20.873Z,76.68
2018-12-20T20:08:34.844Z,76.99
2018-12-20T20:11:09.623Z,76.68
2018-12-20T20:16:23.652Z,76.24
2018-12-20T20:18:57.386Z,76.54
2018-12-20T20:21:31.194Z,76.85
2018-12-20T20:26:44.443Z,76.19
2018-12-20T20:29:18.413Z,76.22
2018-12-20T20:31:52.201Z,76.38
2018-12-20T20:37:07.367Z,76.29
2018-12-20T20:39:41.326Z,76.71
2018-12-20T20:42:15.088Z,76.70
2018-12-20T20:44:49.609Z,76.82
2018-12-20T20:47:24.177Z,76.08
2018-12-20T20:49:57.949Z,76.52
2018-12-20T20:52:32.747Z,76.89
2018-12-20T20:55:08.760Z,77.20
2018-12-20T20:57:42.780Z,77.41
2018-12-20T21:00:16.609Z,76.98
2018-12-20T21:02:50.377Z,76.75
2018-12-20T21:08:08.118Z,76.15
2018-12-20T21:10:41.846Z,76.04
2018-12-20T21:13:15.628Z,76.09
2018-12-20T21:15:49.422Z,76.27
2018-12-20T21:18:24.297Z,76.65
2018-12-20T21:20:58.069Z,76.55
2018-12-20T21:23:31.836Z,76.67
2018-12-20T21:26:05.677Z,76.71
2018-12-20T21:31:21.896Z,76.78
2018-12-20T21:33:55.642Z,77.18
2018-12-20T21:36:30.206Z,77.15
2018-12-20T21:39:05.644Z,77.27
2018-12-20T21:41:39.460Z,77.14
2018-12-20T21:44:13.551Z,77.22
2018-12-20T21:46:47.302Z,77.26
2018-12-20T21:49:21.099Z,77.23
2018-12-20T21:51:54.899Z,76.90
2018-12-20T21:54:29.440Z,76.41
2018-12-20T21:57:03.209Z,76.23
2018-12-20T21:59:37.293Z,76.05
2018-12-20T22:02:11.063Z,75.89
2018-12-20T22:04:45.197Z,75.79
2018-12-20T22:09:58.801Z,75.87
2018-12-20T22:12:33.307Z,76.17
2018-12-20T22:15:07.338Z,76.00
2018-12-20T22:17:41.107Z,75.92
2018-12-20T22:22:55.203Z,76.27
2018-12-20T22:25:29.263Z,76.47
2018-12-20T22:28:03.383Z,76.43
2018-12-20T22:30:37.246Z,76.68
2018-12-20T22:33:12.123Z,76.51
2018-12-20T22:38:26.682Z,76.72
2018-12-20T22:41:00.700Z,76.94
2018-12-20T22:43:34.476Z,76.78
2018-12-20T22:46:11.109Z,76.89
2018-12-20T22:48:43.869Z,77.39
2018-12-20T22:51:17.679Z,77.39
2018-12-20T22:53:51.459Z,77.26
2018-12-20T22:56:25.283Z,77.42
2018-12-20T23:01:40.851Z,77.35
2018-12-20T23:04:15.328Z,77.45
2018-12-20T23:09:33.424Z,77.30
2018-12-20T23:12:07.197Z,76.97
2018-12-20T23:17:22.376Z,77.11
2018-12-20T23:19:54.522Z,76.89
2018-12-20T23:22:28.287Z,77.19
2018-12-20T23:27:41.543Z,77.32
2018-12-20T23:30:15.989Z,77.42
2018-12-20T23:32:49.782Z,77.61
2018-12-20T23:35:23.566Z,77.59
2018-12-20T23:37:58.464Z,77.31
2018-12-20T23:40:32.482Z,77.56
2018-12-20T23:43:06.247Z,77.56
2018-12-20T23:45:40.056Z,77.45
2018-12-20T23:48:13.847Z,77.67
2018-12-20T23:50:47.924Z,77.62
2018-12-20T23:53:21.656Z,77.57
2018-12-20T23:55:56.163Z,77.54
2018-12-20T23:58:30.981Z,77.25
